Terminal Aerodrome Forecast
Issued by NWS

Home | Current Version | Previous Version | Graphics & Text | Print | Product List | Glossary On
Versions: 1 2 3 4 5 6 7 8 9 10 11 12 13
000
FTUS43 KICT 181100 RRA
TAFRSL
TAF
KRSL 181142Z 1812/1912 18008KT P6SM FEW020
     FM181700 18022G30KT P6SM SCT035
     FM190100 16015G22KT P6SM SCT050=

USA.gov is the U.S. government's official web portal to all federal, state and local government web resources and services.